sensor_id;sensor_type;location;lat;lon;timestamp;pressure;altitude;pressure_sealevel;temperature;humidity
66273;BME280;58450;52.150;4.466;2023-02-23T00:01:25;101298.66;;;8.28;100.00
66273;BME280;58450;52.150;4.466;2023-02-23T00:03:54;101296.66;;;8.30;100.00
66273;BME280;58450;52.150;4.466;2023-02-23T00:06:24;101293.66;;;8.33;100.00
66273;BME280;58450;52.150;4.466;2023-02-23T00:08:55;101298.22;;;8.33;100.00
66273;BME280;58450;52.150;4.466;2023-02-23T00:11:23;101296.06;;;8.45;100.00
66273;BME280;58450;52.150;4.466;2023-02-23T00:13:53;101300.91;;;8.41;100.00
66273;BME280;58450;52.150;4.466;2023-02-23T00:16:24;101302.63;;;8.50;100.00
66273;BME280;58450;52.150;4.466;2023-02-23T00:18:54;101295.59;;;8.49;100.00
66273;BME280;58450;52.150;4.466;2023-02-23T00:21:26;101301.50;;;8.53;100.00
66273;BME280;58450;52.150;4.466;2023-02-23T00:23:56;101308.63;;;8.44;100.00
66273;BME280;58450;52.150;4.466;2023-02-23T00:26:26;101304.63;;;8.48;100.00
66273;BME280;58450;52.150;4.466;2023-02-23T00:28:58;101299.97;;;8.50;100.00
66273;BME280;58450;52.150;4.466;2023-02-23T00:31:28;101307.63;;;8.37;100.00
66273;BME280;58450;52.150;4.466;2023-02-23T00:33:57;101306.13;;;8.42;100.00
66273;BME280;58450;52.150;4.466;2023-02-23T00:36:28;101302.06;;;8.38;100.00
66273;BME280;58450;52.150;4.466;2023-02-23T00:38:58;101299.56;;;8.45;100.00
66273;BME280;58450;52.150;4.466;2023-02-23T00:41:27;101301.25;;;8.46;100.00
66273;BME280;58450;52.150;4.466;2023-02-23T00:43:57;101299.91;;;8.42;100.00
66273;BME280;58450;52.150;4.466;2023-02-23T00:46:28;101308.13;;;8.40;100.00
66273;BME280;58450;52.150;4.466;2023-02-23T00:48:58;101298.88;;;8.43;100.00
66273;BME280;58450;52.150;4.466;2023-02-23T00:51:27;101297.28;;;8.50;100.00
66273;BME280;58450;52.150;4.466;2023-02-23T00:53:56;101303.44;;;8.42;100.00
66273;BME280;58450;52.150;4.466;2023-02-23T00:56:25;101305.25;;;8.34;100.00
66273;BME280;58450;52.150;4.466;2023-02-23T00:58:54;101298.88;;;8.43;100.00
66273;BME280;58450;52.150;4.466;2023-02-23T01:01:22;101307.28;;;8.48;100.00
66273;BME280;58450;52.150;4.466;2023-02-23T01:03:52;101308.63;;;8.44;100.00
66273;BME280;58450;52.150;4.466;2023-02-23T01:06:19;101307.53;;;8.55;100.00
66273;BME280;58450;52.150;4.466;2023-02-23T01:08:49;101306.34;;;8.57;100.00
66273;BME280;58450;52.150;4.466;2023-02-23T01:11:23;101305.69;;;8.55;100.00
66273;BME280;58450;52.150;4.466;2023-02-23T01:13:54;101303.69;;;8.57;100.00
66273;BME280;58450;52.150;4.466;2023-02-23T01:16:25;101299.84;;;8.60;100.00
66273;BME280;58450;52.150;4.466;2023-02-23T01:18:57;101300.00;;;8.58;100.00
66273;BME280;58450;52.150;4.466;2023-02-23T01:21:28;101297.66;;;8.64;100.00
66273;BME280;58450;52.150;4.466;2023-02-23T01:23:57;101295.81;;;8.56;100.00
66273;BME280;58450;52.150;4.466;2023-02-23T01:26:27;101292.59;;;8.52;100.00
66273;BME280;58450;52.150;4.466;2023-02-23T01:28:57;101296.28;;;8.51;100.00
66273;BME280;58450;52.150;4.466;2023-02-23T01:31:28;101304.03;;;8.63;100.00
66273;BME280;58450;52.150;4.466;2023-02-23T01:33:59;101305.72;;;8.64;100.00
66273;BME280;58450;52.150;4.466;2023-02-23T01:36:28;101309.56;;;8.61;100.00
66273;BME280;58450;52.150;4.466;2023-02-23T01:38:58;101310.03;;;8.56;100.00
66273;BME280;58450;52.150;4.466;2023-02-23T01:41:27;101309.00;;;8.49;100.00
66273;BME280;58450;52.150;4.466;2023-02-23T01:44:00;101309.97;;;8.48;100.00
66273;BME280;58450;52.150;4.466;2023-02-23T01:46:32;101304.50;;;8.50;100.00
66273;BME280;58450;52.150;4.466;2023-02-23T01:49:03;101297.13;;;8.52;100.00
66273;BME280;58450;52.150;4.466;2023-02-23T01:51:40;101299.06;;;8.41;100.00
66273;BME280;58450;52.150;4.466;2023-02-23T01:54:16;101296.88;;;8.45;100.00
66273;BME280;58450;52.150;4.466;2023-02-23T01:56:50;101302.53;;;8.60;100.00
66273;BME280;58450;52.150;4.466;2023-02-23T01:59:25;101303.75;;;8.82;100.00
66273;BME280;58450;52.150;4.466;2023-02-23T02:01:59;101302.22;;;8.71;100.00
66273;BME280;58450;52.150;4.466;2023-02-23T02:04:33;101303.75;;;8.82;100.00
66273;BME280;58450;52.150;4.466;2023-02-23T02:07:09;101301.56;;;8.78;100.00
66273;BME280;58450;52.150;4.466;2023-02-23T02:09:39;101296.38;;;8.84;100.00
66273;BME280;58450;52.150;4.466;2023-02-23T02:12:27;101306.75;;;8.79;100.00
66273;BME280;58450;52.150;4.466;2023-02-23T02:14:55;101307.94;;;8.85;100.00
66273;BME280;58450;52.150;4.466;2023-02-23T02:17:31;101304.78;;;8.90;100.00
66273;BME280;58450;52.150;4.466;2023-02-23T02:20:38;101305.28;;;8.93;100.00
66273;BME280;58450;52.150;4.466;2023-02-23T02:23:52;101309.81;;;8.93;100.00
66273;BME280;58450;52.150;4.466;2023-02-23T02:26:43;101310.31;;;8.80;100.00
66273;BME280;58450;52.150;4.466;2023-02-23T02:29:42;101311.31;;;8.95;100.00
66273;BME280;58450;52.150;4.466;2023-02-23T02:33:00;101307.59;;;8.88;100.00
66273;BME280;58450;52.150;4.466;2023-02-23T02:38:53;101311.97;;;8.72;100.00
66273;BME280;58450;52.150;4.466;2023-02-23T02:41:33;101306.41;;;8.74;100.00
66273;BME280;58450;52.150;4.466;2023-02-23T02:44:13;101308.44;;;8.80;100.00
66273;BME280;58450;52.150;4.466;2023-02-23T02:46:46;101312.63;;;8.75;100.00
66273;BME280;58450;52.150;4.466;2023-02-23T02:49:23;101312.91;;;8.55;100.00
66273;BME280;58450;52.150;4.466;2023-02-23T02:51:59;101310.56;;;8.60;100.00
66273;BME280;58450;52.150;4.466;2023-02-23T02:54:36;101309.25;;;8.64;100.00
66273;BME280;58450;52.150;4.466;2023-02-23T02:57:07;101308.91;;;8.59;100.00
66273;BME280;58450;52.150;4.466;2023-02-23T02:59:44;101307.28;;;8.48;100.00
66273;BME280;58450;52.150;4.466;2023-02-23T03:02:32;101304.78;;;8.47;100.00
66273;BME280;58450;52.150;4.466;2023-02-23T03:05:22;101299.91;;;8.42;100.00
66273;BME280;58450;52.150;4.466;2023-02-23T03:08:16;101290.75;;;8.53;100.00
66273;BME280;58450;52.150;4.466;2023-02-23T03:11:09;101297.66;;;8.64;100.00
66273;BME280;58450;52.150;4.466;2023-02-23T03:14:04;101304.38;;;8.68;100.00
66273;BME280;58450;52.150;4.466;2023-02-23T03:17:04;101295.84;;;8.72;100.00
66273;BME280;58450;52.150;4.466;2023-02-23T03:19:59;101304.22;;;8.61;100.00
66273;BME280;58450;52.150;4.466;2023-02-23T03:22:57;101308.56;;;8.62;100.00
66273;BME280;58450;52.150;4.466;2023-02-23T03:25:53;101309.72;;;8.60;100.00
66273;BME280;58450;52.150;4.466;2023-02-23T03:28:56;101317.09;;;8.57;100.00
66273;BME280;58450;52.150;4.466;2023-02-23T03:31:49;101316.78;;;8.69;100.00
66273;BME280;58450;52.150;4.466;2023-02-23T03:34:39;101316.81;;;8.77;100.00
66273;BME280;58450;52.150;4.466;2023-02-23T03:37:35;101322.81;;;8.63;100.00
66273;BME280;58450;52.150;4.466;2023-02-23T03:40:25;101324.13;;;8.58;100.00
66273;BME280;58450;52.150;4.466;2023-02-23T03:43:17;101321.34;;;8.68;100.00
66273;BME280;58450;52.150;4.466;2023-02-23T03:46:09;101326.06;;;8.83;100.00
66273;BME280;58450;52.150;4.466;2023-02-23T03:48:58;101325.03;;;8.84;100.00
66273;BME280;58450;52.150;4.466;2023-02-23T03:51:50;101326.06;;;8.75;100.00
66273;BME280;58450;52.150;4.466;2023-02-23T03:54:43;101328.72;;;8.66;100.00
66273;BME280;58450;52.150;4.466;2023-02-23T03:57:33;101332.19;;;8.58;100.00
66273;BME280;58450;52.150;4.466;2023-02-23T04:00:29;101333.44;;;8.72;100.00
66273;BME280;58450;52.150;4.466;2023-02-23T04:03:22;101340.13;;;8.68;100.00
66273;BME280;58450;52.150;4.466;2023-02-23T04:06:12;101347.00;;;8.71;100.00
66273;BME280;58450;52.150;4.466;2023-02-23T04:09:04;101341.25;;;8.66;100.00
66273;BME280;58450;52.150;4.466;2023-02-23T04:11:55;101346.63;;;8.66;100.00
66273;BME280;58450;52.150;4.466;2023-02-23T04:14:50;101346.31;;;8.69;100.00
66273;BME280;58450;52.150;4.466;2023-02-23T04:17:25;101343.25;;;8.55;100.00
66273;BME280;58450;52.150;4.466;2023-02-23T04:20:00;101346.84;;;8.38;100.00
66273;BME280;58450;52.150;4.466;2023-02-23T04:22:28;101354.75;;;8.48;100.00
66273;BME280;58450;52.150;4.466;2023-02-23T04:24:56;101350.72;;;8.43;100.00
66273;BME280;58450;52.150;4.466;2023-02-23T04:27:23;101356.50;;;8.57;100.00
66273;BME280;58450;52.150;4.466;2023-02-23T04:29:51;101347.44;;;8.58;100.00
66273;BME280;58450;52.150;4.466;2023-02-23T04:32:18;101355.50;;;8.58;100.00
66273;BME280;58450;52.150;4.466;2023-02-23T04:34:46;101348.81;;;8.62;100.00
66273;BME280;58450;52.150;4.466;2023-02-23T04:37:16;101349.09;;;8.51;100.00
66273;BME280;58450;52.150;4.466;2023-02-23T04:39:43;101352.47;;;8.53;100.00
66273;BME280;58450;52.150;4.466;2023-02-23T04:42:14;101357.81;;;8.53;100.00
66273;BME280;58450;52.150;4.466;2023-02-23T04:44:42;101354.28;;;8.52;100.00
66273;BME280;58450;52.150;4.466;2023-02-23T04:47:10;101365.47;;;8.48;100.00
66273;BME280;58450;52.150;4.466;2023-02-23T04:49:40;101362.78;;;8.48;100.00
66273;BME280;58450;52.150;4.466;2023-02-23T04:52:08;101360.44;;;8.45;100.00
66273;BME280;58450;52.150;4.466;2023-02-23T04:54:38;101362.25;;;8.44;100.00
66273;BME280;58450;52.150;4.466;2023-02-23T04:57:06;101366.94;;;8.34;100.00
66273;BME280;58450;52.150;4.466;2023-02-23T04:59:35;101376.97;;;8.32;100.00
66273;BME280;58450;52.150;4.466;2023-02-23T05:02:02;101375.28;;;8.31;100.00
66273;BME280;58450;52.150;4.466;2023-02-23T05:04:31;101367.88;;;8.24;100.00
66273;BME280;58450;52.150;4.466;2023-02-23T05:07:00;101372.03;;;8.19;100.00
66273;BME280;58450;52.150;4.466;2023-02-23T05:09:28;101372.13;;;8.09;100.00
66273;BME280;58450;52.150;4.466;2023-02-23T05:11:57;101381.63;;;8.03;100.00
66273;BME280;58450;52.150;4.466;2023-02-23T05:14:25;101381.00;;;8.09;100.00
66273;BME280;58450;52.150;4.466;2023-02-23T05:16:52;101374.88;;;8.17;100.00
66273;BME280;58450;52.150;4.466;2023-02-23T05:19:20;101377.25;;;8.20;100.00
66273;BME280;58450;52.150;4.466;2023-02-23T05:21:48;101385.47;;;8.27;100.00
66273;BME280;58450;52.150;4.466;2023-02-23T05:24:15;101376.94;;;8.23;100.00
66273;BME280;58450;52.150;4.466;2023-02-23T05:26:43;101380.91;;;8.19;100.00
66273;BME280;58450;52.150;4.466;2023-02-23T05:29:12;101392.53;;;8.28;100.00
66273;BME280;58450;52.150;4.466;2023-02-23T05:31:40;101385.16;;;8.30;100.00
66273;BME280;58450;52.150;4.466;2023-02-23T05:34:07;101385.84;;;8.32;100.00
66273;BME280;58450;52.150;4.466;2023-02-23T05:36:35;101390.06;;;8.35;100.00
66273;BME280;58450;52.150;4.466;2023-02-23T05:39:03;101388.91;;;8.37;100.00
66273;BME280;58450;52.150;4.466;2023-02-23T05:41:30;101387.03;;;8.30;100.00
66273;BME280;58450;52.150;4.466;2023-02-23T05:43:58;101387.06;;;8.38;100.00
66273;BME280;58450;52.150;4.466;2023-02-23T05:46:26;101392.25;;;8.39;100.00
66273;BME280;58450;52.150;4.466;2023-02-23T05:48:55;101394.88;;;8.31;100.00
66273;BME280;58450;52.150;4.466;2023-02-23T05:51:26;101402.44;;;8.27;100.00
66273;BME280;58450;52.150;4.466;2023-02-23T05:53:55;101402.75;;;8.24;100.00
66273;BME280;58450;52.150;4.466;2023-02-23T05:56:22;101411.81;;;8.05;100.00
66273;BME280;58450;52.150;4.466;2023-02-23T05:58:53;101409.09;;;8.23;100.00
66273;BME280;58450;52.150;4.466;2023-02-23T06:01:23;101405.09;;;8.27;100.00
66273;BME280;58450;52.150;4.466;2023-02-23T06:03:52;101411.09;;;8.21;100.00
66273;BME280;58450;52.150;4.466;2023-02-23T06:06:21;101401.75;;;8.25;100.00
66273;BME280;58450;52.150;4.466;2023-02-23T06:08:50;101409.19;;;8.13;100.00
66273;BME280;58450;52.150;4.466;2023-02-23T06:11:17;101407.50;;;8.12;100.00
66273;BME280;58450;52.150;4.466;2023-02-23T06:13:45;101406.50;;;8.13;100.00
66273;BME280;58450;52.150;4.466;2023-02-23T06:16:12;101414.78;;;8.20;100.00
66273;BME280;58450;52.150;4.466;2023-02-23T06:18:40;101413.41;;;8.16;100.00
66273;BME280;58450;52.150;4.466;2023-02-23T06:21:09;101418.47;;;8.19;100.00
66273;BME280;58450;52.150;4.466;2023-02-23T06:23:36;101417.16;;;8.23;100.00
66273;BME280;58450;52.150;4.466;2023-02-23T06:26:04;101423.81;;;8.19;100.00
66273;BME280;58450;52.150;4.466;2023-02-23T06:28:33;101416.72;;;8.10;100.00
66273;BME280;58450;52.150;4.466;2023-02-23T06:31:01;101423.69;;;8.03;100.00
66273;BME280;58450;52.150;4.466;2023-02-23T06:33:29;101429.19;;;8.01;100.00
66273;BME280;58450;52.150;4.466;2023-02-23T06:35:56;101424.63;;;7.93;100.00
66273;BME280;58450;52.150;4.466;2023-02-23T06:38:25;101426.09;;;7.88;100.00
66273;BME280;58450;52.150;4.466;2023-02-23T06:40:52;101425.09;;;7.89;100.00
66273;BME280;58450;52.150;4.466;2023-02-23T06:43:20;101433.03;;;7.98;100.00
66273;BME280;58450;52.150;4.466;2023-02-23T06:45:48;101431.34;;;7.97;100.00
66273;BME280;58450;52.150;4.466;2023-02-23T06:48:15;101427.69;;;7.98;100.00
66273;BME280;58450;52.150;4.466;2023-02-23T06:50:43;101438.88;;;7.94;100.00
66273;BME280;58450;52.150;4.466;2023-02-23T06:53:11;101441.00;;;7.90;100.00
66273;BME280;58450;52.150;4.466;2023-02-23T06:55:39;101447.53;;;7.88;100.00
66273;BME280;58450;52.150;4.466;2023-02-23T06:58:07;101446.69;;;7.87;100.00
66273;BME280;58450;52.150;4.466;2023-02-23T07:00:34;101462.38;;;7.82;100.00
66273;BME280;58450;52.150;4.466;2023-02-23T07:03:04;101471.28;;;7.82;100.00
66273;BME280;58450;52.150;4.466;2023-02-23T07:05:31;101467.75;;;7.82;100.00
66273;BME280;58450;52.150;4.466;2023-02-23T07:07:59;101469.28;;;7.84;100.00
66273;BME280;58450;52.150;4.466;2023-02-23T07:10:26;101471.50;;;7.89;100.00
66273;BME280;58450;52.150;4.466;2023-02-23T07:12:55;101475.72;;;7.92;100.00
66273;BME280;58450;52.150;4.466;2023-02-23T07:15:24;101485.97;;;7.96;100.00
66273;BME280;58450;52.150;4.466;2023-02-23T07:17:52;101494.81;;;7.97;100.00
66273;BME280;58450;52.150;4.466;2023-02-23T07:20:19;101497.44;;;8.07;100.00
66273;BME280;58450;52.150;4.466;2023-02-23T07:22:47;101498.50;;;8.14;100.00
66273;BME280;58450;52.150;4.466;2023-02-23T07:25:15;101509.25;;;8.14;100.00
66273;BME280;58450;52.150;4.466;2023-02-23T07:27:43;101502.88;;;8.15;100.00
66273;BME280;58450;52.150;4.466;2023-02-23T07:30:13;101505.75;;;8.22;100.00
66273;BME280;58450;52.150;4.466;2023-02-23T07:32:43;101511.31;;;8.20;100.00
66273;BME280;58450;52.150;4.466;2023-02-23T07:35:10;101510.19;;;8.31;100.00
66273;BME280;58450;52.150;4.466;2023-02-23T07:37:38;101516.72;;;8.28;100.00
66273;BME280;58450;52.150;4.466;2023-02-23T07:40:06;101521.53;;;8.25;100.00
66273;BME280;58450;52.150;4.466;2023-02-23T07:42:35;101529.50;;;8.53;100.00
66273;BME280;58450;52.150;4.466;2023-02-23T07:45:03;101522.25;;;8.71;100.00
66273;BME280;58450;52.150;4.466;2023-02-23T07:47:32;101525.34;;;8.85;100.00
66273;BME280;58450;52.150;4.466;2023-02-23T07:50:04;101527.75;;;8.96;100.00
66273;BME280;58450;52.150;4.466;2023-02-23T07:52:36;101533.56;;;9.18;100.00
66273;BME280;58450;52.150;4.466;2023-02-23T07:55:05;101530.25;;;9.24;100.00
66273;BME280;58450;52.150;4.466;2023-02-23T07:57:34;101537.06;;;9.10;100.00
66273;BME280;58450;52.150;4.466;2023-02-23T08:00:03;101535.44;;;8.91;100.00
66273;BME280;58450;52.150;4.466;2023-02-23T08:02:32;101544.75;;;9.05;100.00
66273;BME280;58450;52.150;4.466;2023-02-23T08:05:00;101547.13;;;9.08;100.00
66273;BME280;58450;52.150;4.466;2023-02-23T08:07:27;101554.38;;;9.16;100.00
66273;BME280;58450;52.150;4.466;2023-02-23T08:09:57;101554.59;;;8.96;100.00
66273;BME280;58450;52.150;4.466;2023-02-23T08:12:25;101556.50;;;9.04;100.00
66273;BME280;58450;52.150;4.466;2023-02-23T08:14:52;101561.19;;;9.02;100.00
66273;BME280;58450;52.150;4.466;2023-02-23T08:17:20;101568.56;;;9.00;100.00
66273;BME280;58450;52.150;4.466;2023-02-23T08:19:49;101564.28;;;8.89;100.00
66273;BME280;58450;52.150;4.466;2023-02-23T08:22:16;101561.28;;;9.19;100.00
66273;BME280;58450;52.150;4.466;2023-02-23T08:24:43;101562.19;;;9.01;100.00
66273;BME280;58450;52.150;4.466;2023-02-23T08:27:11;101566.25;;;9.05;100.00
66273;BME280;58450;52.150;4.466;2023-02-23T08:29:39;101562.50;;;8.98;100.00
66273;BME280;58450;52.150;4.466;2023-02-23T08:32:06;101559.16;;;9.30;100.00
66273;BME280;58450;52.150;4.466;2023-02-23T08:34:36;101566.59;;;9.45;100.00
66273;BME280;58450;52.150;4.466;2023-02-23T08:37:06;101562.50;;;9.75;100.00
66273;BME280;58450;52.150;4.466;2023-02-23T08:39:34;101563.72;;;10.06;100.00
66273;BME280;58450;52.150;4.466;2023-02-23T08:42:03;101563.91;;;10.13;100.00
66273;BME280;58450;52.150;4.466;2023-02-23T08:44:31;101566.41;;;10.06;100.00
66273;BME280;58450;52.150;4.466;2023-02-23T08:46:58;101581.34;;;9.92;100.00
66273;BME280;58450;52.150;4.466;2023-02-23T08:49:26;101577.16;;;9.46;100.00
66273;BME280;58450;52.150;4.466;2023-02-23T08:51:53;101582.00;;;9.35;100.00
66273;BME280;58450;52.150;4.466;2023-02-23T08:54:22;101593.34;;;9.20;100.00
66273;BME280;58450;52.150;4.466;2023-02-23T08:56:49;101594.88;;;9.31;100.00
66273;BME280;58450;52.150;4.466;2023-02-23T08:59:17;101589.28;;;9.51;100.00
66273;BME280;58450;52.150;4.466;2023-02-23T09:01:44;101599.03;;;9.17;100.00
66273;BME280;58450;52.150;4.466;2023-02-23T09:04:12;101586.31;;;8.93;100.00
66273;BME280;58450;52.150;4.466;2023-02-23T09:06:39;101591.78;;;9.09;100.00
66273;BME280;58450;52.150;4.466;2023-02-23T09:09:07;101593.50;;;8.92;100.00
66273;BME280;58450;52.150;4.466;2023-02-23T09:11:35;101596.97;;;9.11;100.00
66273;BME280;58450;52.150;4.466;2023-02-23T09:14:03;101593.72;;;8.99;100.00
66273;BME280;58450;52.150;4.466;2023-02-23T09:16:31;101605.72;;;9.13;100.00
66273;BME280;58450;52.150;4.466;2023-02-23T09:18:58;101612.41;;;9.09;100.00
66273;BME280;58450;52.150;4.466;2023-02-23T09:21:26;101618.88;;;8.98;100.00
66273;BME280;58450;52.150;4.466;2023-02-23T09:23:55;101623.56;;;8.96;100.00
66273;BME280;58450;52.150;4.466;2023-02-23T09:26:23;101619.03;;;8.96;100.00
66273;BME280;58450;52.150;4.466;2023-02-23T09:28:55;101626.22;;;8.51;100.00
66273;BME280;58450;52.150;4.466;2023-02-23T09:31:25;101627.22;;;8.68;100.00
66273;BME280;58450;52.150;4.466;2023-02-23T09:33:53;101627.44;;;8.75;100.00
66273;BME280;58450;52.150;4.466;2023-02-23T09:36:22;101632.97;;;8.55;100.00
66273;BME280;58450;52.150;4.466;2023-02-23T09:38:53;101626.91;;;8.35;100.00
66273;BME280;58450;52.150;4.466;2023-02-23T09:41:54;101619.88;;;8.52;100.00
66273;BME280;58450;52.150;4.466;2023-02-23T09:44:43;101613.41;;;8.27;100.00
66273;BME280;58450;52.150;4.466;2023-02-23T09:47:30;101613.34;;;8.37;100.00
66273;BME280;58450;52.150;4.466;2023-02-23T09:50:13;101613.75;;;8.60;100.00
66273;BME280;58450;52.150;4.466;2023-02-23T09:52:51;101624.06;;;8.73;100.00
66273;BME280;58450;52.150;4.466;2023-02-23T09:55:24;101623.31;;;8.63;100.00
66273;BME280;58450;52.150;4.466;2023-02-23T09:57:55;101624.22;;;8.53;100.00
66273;BME280;58450;52.150;4.466;2023-02-23T10:00:36;101623.00;;;8.66;100.00
66273;BME280;58450;52.150;4.466;2023-02-23T10:03:20;101630.66;;;8.61;100.00
66273;BME280;58450;52.150;4.466;2023-02-23T10:05:55;101633.53;;;8.59;100.00
66273;BME280;58450;52.150;4.466;2023-02-23T10:08:41;101632.81;;;8.39;100.00
66273;BME280;58450;52.150;4.466;2023-02-23T10:11:26;101634.63;;;8.20;100.00
66273;BME280;58450;52.150;4.466;2023-02-23T10:14:11;101633.72;;;8.30;100.00
66273;BME280;58450;52.150;4.466;2023-02-23T10:17:02;101639.47;;;8.35;100.00
66273;BME280;58450;52.150;4.466;2023-02-23T10:19:43;101646.38;;;8.37;100.00
66273;BME280;58450;52.150;4.466;2023-02-23T10:22:18;101642.84;;;8.37;100.00
66273;BME280;58450;52.150;4.466;2023-02-23T10:24:53;101645.94;;;8.60;100.00
66273;BME280;58450;52.150;4.466;2023-02-23T10:27:29;101655.75;;;8.51;100.00
66273;BME280;58450;52.150;4.466;2023-02-23T10:30:17;101657.44;;;8.52;100.00
66273;BME280;58450;52.150;4.466;2023-02-23T10:32:53;101663.97;;;8.40;100.00
66273;BME280;58450;52.150;4.466;2023-02-23T10:35:28;101663.31;;;8.38;100.00
66273;BME280;58450;52.150;4.466;2023-02-23T10:37:58;101657.88;;;8.66;100.00
66273;BME280;58450;52.150;4.466;2023-02-23T10:40:30;101662.00;;;8.78;100.00
66273;BME280;58450;52.150;4.466;2023-02-23T10:43:00;101663.28;;;8.92;100.00
66273;BME280;58450;52.150;4.466;2023-02-23T10:45:33;101660.88;;;8.63;100.00
66273;BME280;58450;52.150;4.466;2023-02-23T10:48:08;101661.13;;;8.69;100.00
66273;BME280;58450;52.150;4.466;2023-02-23T10:50:43;101662.41;;;8.83;100.00
66273;BME280;58450;52.150;4.466;2023-02-23T10:53:17;101655.22;;;9.10;100.00
66273;BME280;58450;52.150;4.466;2023-02-23T10:56:00;101667.28;;;9.06;100.00
66273;BME280;58450;52.150;4.466;2023-02-23T10:58:39;101661.03;;;9.24;100.00
66273;BME280;58450;52.150;4.466;2023-02-23T11:01:12;101667.06;;;9.26;100.00
66273;BME280;58450;52.150;4.466;2023-02-23T11:03:44;101667.09;;;9.08;100.00
66273;BME280;58450;52.150;4.466;2023-02-23T11:06:27;101670.53;;;8.92;100.00
66273;BME280;58450;52.150;4.466;2023-02-23T11:08:57;101669.34;;;9.12;100.00
66273;BME280;58450;52.150;4.466;2023-02-23T11:11:26;101676.69;;;9.10;100.00
66273;BME280;58450;52.150;4.466;2023-02-23T11:13:55;101674.28;;;8.99;100.00
66273;BME280;58450;52.150;4.466;2023-02-23T11:16:25;101681.50;;;9.25;100.00
66273;BME280;58450;52.150;4.466;2023-02-23T11:18:58;101676.13;;;9.25;100.00
66273;BME280;58450;52.150;4.466;2023-02-23T11:21:28;101680.22;;;9.37;100.00
66273;BME280;58450;52.150;4.466;2023-02-23T11:24:05;101678.47;;;9.28;100.00
66273;BME280;58450;52.150;4.466;2023-02-23T11:26:46;101674.47;;;9.32;100.00
66273;BME280;58450;52.150;4.466;2023-02-23T11:29:22;101670.84;;;9.15;100.00
66273;BME280;58450;52.150;4.466;2023-02-23T11:31:55;101668.09;;;9.33;100.00
66273;BME280;58450;52.150;4.466;2023-02-23T11:34:30;101668.09;;;9.33;100.00
66273;BME280;58450;52.150;4.466;2023-02-23T11:37:04;101668.28;;;9.66;100.00
66273;BME280;58450;52.150;4.466;2023-02-23T11:39:33;101668.94;;;9.60;100.00
66273;BME280;58450;52.150;4.466;2023-02-23T11:42:12;101665.28;;;9.69;100.00
66273;BME280;58450;52.150;4.466;2023-02-23T11:44:48;101661.09;;;9.67;100.00
66273;BME280;58450;52.150;4.466;2023-02-23T11:47:17;101666.28;;;9.68;100.00
66273;BME280;58450;52.150;4.466;2023-02-23T11:49:49;101673.59;;;9.93;100.00
66273;BME280;58450;52.150;4.466;2023-02-23T11:52:20;101663.44;;;10.29;100.00
66273;BME280;58450;52.150;4.466;2023-02-23T11:54:54;101658.81;;;10.56;100.00
66273;BME280;58450;52.150;4.466;2023-02-23T11:57:26;101655.81;;;10.84;100.00
66273;BME280;58450;52.150;4.466;2023-02-23T11:59:57;101655.63;;;10.94;100.00
66273;BME280;58450;52.150;4.466;2023-02-23T12:02:28;101665.19;;;11.05;100.00
66273;BME280;58450;52.150;4.466;2023-02-23T12:05:06;101657.13;;;11.05;100.00
66273;BME280;58450;52.150;4.466;2023-02-23T12:07:48;101652.69;;;11.29;100.00
66273;BME280;58450;52.150;4.466;2023-02-23T12:10:23;101659.31;;;10.93;100.00
66273;BME280;58450;52.150;4.466;2023-02-23T12:13:02;101655.47;;;10.96;100.00
66273;BME280;58450;52.150;4.466;2023-02-23T12:15:42;101649.75;;;10.90;100.00
66273;BME280;58450;52.150;4.466;2023-02-23T12:18:20;101652.38;;;11.15;100.00
66273;BME280;58450;52.150;4.466;2023-02-23T12:21:13;101655.25;;;11.30;100.00
66273;BME280;58450;52.150;4.466;2023-02-23T12:23:47;101650.53;;;11.32;100.00
66273;BME280;58450;52.150;4.466;2023-02-23T12:26:19;101652.09;;;10.93;100.00
66273;BME280;58450;52.150;4.466;2023-02-23T12:28:53;101650.91;;;10.96;100.00
66273;BME280;58450;52.150;4.466;2023-02-23T12:31:34;101658.16;;;10.96;100.00
66273;BME280;58450;52.150;4.466;2023-02-23T12:34:11;101667.25;;;10.86;100.00
66273;BME280;58450;52.150;4.466;2023-02-23T12:36:49;101656.13;;;10.64;100.00
66273;BME280;58450;52.150;4.466;2023-02-23T12:39:25;101653.44;;;10.56;100.00
66273;BME280;58450;52.150;4.466;2023-02-23T12:42:01;101657.47;;;10.52;100.00
66273;BME280;58450;52.150;4.466;2023-02-23T12:44:39;101647.91;;;10.49;100.00
66273;BME280;58450;52.150;4.466;2023-02-23T12:47:20;101655.78;;;10.51;100.00
66273;BME280;58450;52.150;4.466;2023-02-23T12:49:57;101655.72;;;10.34;100.00
66273;BME280;58450;52.150;4.466;2023-02-23T12:52:37;101659.75;;;10.30;100.00
66273;BME280;58450;52.150;4.466;2023-02-23T12:55:13;101663.97;;;10.33;100.00
66273;BME280;58450;52.150;4.466;2023-02-23T12:57:47;101666.13;;;10.13;100.00
66273;BME280;58450;52.150;4.466;2023-02-23T13:00:50;101654.81;;;10.01;100.00
66273;BME280;58450;52.150;4.466;2023-02-23T13:03:49;101660.97;;;9.85;100.00
66273;BME280;58450;52.150;4.466;2023-02-23T13:06:38;101668.72;;;9.88;100.00
66273;BME280;58450;52.150;4.466;2023-02-23T13:09:29;101667.22;;;9.94;100.00
66273;BME280;58450;52.150;4.466;2023-02-23T13:12:16;101655.34;;;9.61;100.00
66273;BME280;58450;52.150;4.466;2023-02-23T13:14:56;101664.78;;;9.74;100.00
66273;BME280;58450;52.150;4.466;2023-02-23T13:17:38;101661.09;;;9.75;100.00
66273;BME280;58450;52.150;4.466;2023-02-23T13:20:16;101669.75;;;9.52;100.00
66273;BME280;58450;52.150;4.466;2023-02-23T13:22:55;101669.50;;;9.80;100.00
66273;BME280;58450;52.150;4.466;2023-02-23T13:25:35;101666.59;;;9.65;100.00
66273;BME280;58450;52.150;4.466;2023-02-23T13:28:16;101678.44;;;9.46;100.00
66273;BME280;58450;52.150;4.466;2023-02-23T13:30:46;101668.47;;;9.65;100.00